sensor_id;sensor_type;location;lat;lon;timestamp;P1;durP1;ratioP1;P2;durP2;ratioP2
46363;SDS011;32071;49.036;9.344;2023-05-09T00:00:00;22.50;;;17.87;;
46363;SDS011;32071;49.036;9.344;2023-05-09T00:02:27;20.77;;;16.90;;
46363;SDS011;32071;49.036;9.344;2023-05-09T00:04:53;23.93;;;16.60;;
46363;SDS011;32071;49.036;9.344;2023-05-09T00:07:20;24.73;;;16.20;;
46363;SDS011;32071;49.036;9.344;2023-05-09T00:09:46;21.70;;;15.47;;
46363;SDS011;32071;49.036;9.344;2023-05-09T00:12:11;24.63;;;17.40;;
46363;SDS011;32071;49.036;9.344;2023-05-09T00:14:37;22.97;;;17.37;;
46363;SDS011;32071;49.036;9.344;2023-05-09T00:17:04;23.30;;;16.80;;
46363;SDS011;32071;49.036;9.344;2023-05-09T00:19:31;21.97;;;17.10;;
46363;SDS011;32071;49.036;9.344;2023-05-09T00:21:57;23.37;;;17.40;;
46363;SDS011;32071;49.036;9.344;2023-05-09T00:24:23;22.90;;;16.70;;
46363;SDS011;32071;49.036;9.344;2023-05-09T00:26:48;22.37;;;16.00;;
46363;SDS011;32071;49.036;9.344;2023-05-09T00:29:14;24.57;;;17.73;;
46363;SDS011;32071;49.036;9.344;2023-05-09T00:31:39;29.17;;;17.57;;
46363;SDS011;32071;49.036;9.344;2023-05-09T00:34:05;21.30;;;17.03;;
46363;SDS011;32071;49.036;9.344;2023-05-09T00:36:30;22.97;;;17.10;;
46363;SDS011;32071;49.036;9.344;2023-05-09T00:38:56;23.97;;;17.60;;
46363;SDS011;32071;49.036;9.344;2023-05-09T00:41:22;22.30;;;17.10;;
46363;SDS011;32071;49.036;9.344;2023-05-09T00:43:47;24.83;;;16.83;;
46363;SDS011;32071;49.036;9.344;2023-05-09T00:46:13;33.80;;;19.40;;
46363;SDS011;32071;49.036;9.344;2023-05-09T00:48:39;24.70;;;17.90;;
46363;SDS011;32071;49.036;9.344;2023-05-09T00:51:04;26.47;;;17.43;;
46363;SDS011;32071;49.036;9.344;2023-05-09T00:53:30;23.37;;;16.90;;
46363;SDS011;32071;49.036;9.344;2023-05-09T00:55:56;26.83;;;17.53;;
46363;SDS011;32071;49.036;9.344;2023-05-09T00:58:24;24.23;;;16.27;;
46363;SDS011;32071;49.036;9.344;2023-05-09T01:00:50;26.73;;;17.23;;
46363;SDS011;32071;49.036;9.344;2023-05-09T01:03:16;23.73;;;16.67;;
46363;SDS011;32071;49.036;9.344;2023-05-09T01:05:51;22.10;;;16.03;;
46363;SDS011;32071;49.036;9.344;2023-05-09T01:08:41;21.10;;;15.70;;
46363;SDS011;32071;49.036;9.344;2023-05-09T01:14:15;21.17;;;15.17;;
46363;SDS011;32071;49.036;9.344;2023-05-09T01:16:59;24.50;;;16.43;;
46363;SDS011;32071;49.036;9.344;2023-05-09T01:19:49;21.27;;;15.10;;
46363;SDS011;32071;49.036;9.344;2023-05-09T01:22:16;22.40;;;15.67;;
46363;SDS011;32071;49.036;9.344;2023-05-09T01:27:48;23.50;;;15.37;;
46363;SDS011;32071;49.036;9.344;2023-05-09T01:30:25;27.07;;;17.07;;
46363;SDS011;32071;49.036;9.344;2023-05-09T01:32:52;23.87;;;16.57;;
46363;SDS011;32071;49.036;9.344;2023-05-09T01:35:24;25.37;;;17.30;;
46363;SDS011;32071;49.036;9.344;2023-05-09T01:37:50;23.03;;;16.00;;
46363;SDS011;32071;49.036;9.344;2023-05-09T01:40:18;27.23;;;17.60;;
46363;SDS011;32071;49.036;9.344;2023-05-09T01:42:48;21.77;;;15.57;;
46363;SDS011;32071;49.036;9.344;2023-05-09T01:45:20;23.07;;;16.60;;
46363;SDS011;32071;49.036;9.344;2023-05-09T01:47:48;22.83;;;16.00;;
46363;SDS011;32071;49.036;9.344;2023-05-09T01:50:14;25.07;;;16.00;;
46363;SDS011;32071;49.036;9.344;2023-05-09T01:52:42;24.23;;;16.60;;
46363;SDS011;32071;49.036;9.344;2023-05-09T01:55:11;23.60;;;15.77;;
46363;SDS011;32071;49.036;9.344;2023-05-09T01:57:38;23.03;;;15.87;;
46363;SDS011;32071;49.036;9.344;2023-05-09T02:00:04;25.73;;;17.33;;
46363;SDS011;32071;49.036;9.344;2023-05-09T02:02:32;31.50;;;17.30;;
46363;SDS011;32071;49.036;9.344;2023-05-09T02:04:58;26.93;;;16.60;;
46363;SDS011;32071;49.036;9.344;2023-05-09T02:07:25;25.83;;;16.83;;
46363;SDS011;32071;49.036;9.344;2023-05-09T02:09:53;27.90;;;17.20;;
46363;SDS011;32071;49.036;9.344;2023-05-09T02:12:22;29.17;;;18.07;;
46363;SDS011;32071;49.036;9.344;2023-05-09T02:14:48;20.80;;;15.40;;
46363;SDS011;32071;49.036;9.344;2023-05-09T02:17:14;23.53;;;15.03;;
46363;SDS011;32071;49.036;9.344;2023-05-09T02:19:41;24.13;;;15.43;;
46363;SDS011;32071;49.036;9.344;2023-05-09T02:22:07;23.87;;;16.87;;
46363;SDS011;32071;49.036;9.344;2023-05-09T02:24:33;25.67;;;17.20;;
46363;SDS011;32071;49.036;9.344;2023-05-09T02:27:00;23.00;;;16.03;;
46363;SDS011;32071;49.036;9.344;2023-05-09T02:29:28;22.00;;;16.40;;
46363;SDS011;32071;49.036;9.344;2023-05-09T02:32:05;21.67;;;15.47;;
46363;SDS011;32071;49.036;9.344;2023-05-09T02:34:33;22.10;;;16.17;;
46363;SDS011;32071;49.036;9.344;2023-05-09T02:37:00;24.17;;;15.97;;
46363;SDS011;32071;49.036;9.344;2023-05-09T02:39:26;21.97;;;16.33;;
46363;SDS011;32071;49.036;9.344;2023-05-09T02:41:52;22.90;;;16.10;;
46363;SDS011;32071;49.036;9.344;2023-05-09T02:44:17;22.50;;;15.83;;
46363;SDS011;32071;49.036;9.344;2023-05-09T02:46:43;24.07;;;16.07;;
46363;SDS011;32071;49.036;9.344;2023-05-09T02:49:09;24.70;;;16.50;;
46363;SDS011;32071;49.036;9.344;2023-05-09T02:51:34;24.40;;;15.90;;
46363;SDS011;32071;49.036;9.344;2023-05-09T02:54:00;27.83;;;17.23;;
46363;SDS011;32071;49.036;9.344;2023-05-09T02:56:25;24.97;;;16.03;;
46363;SDS011;32071;49.036;9.344;2023-05-09T02:58:51;24.80;;;16.90;;
46363;SDS011;32071;49.036;9.344;2023-05-09T03:01:16;28.63;;;16.20;;
46363;SDS011;32071;49.036;9.344;2023-05-09T03:03:42;25.47;;;16.00;;
46363;SDS011;32071;49.036;9.344;2023-05-09T03:06:08;25.00;;;16.17;;
46363;SDS011;32071;49.036;9.344;2023-05-09T03:08:33;24.27;;;16.70;;
46363;SDS011;32071;49.036;9.344;2023-05-09T03:10:59;22.43;;;15.13;;
46363;SDS011;32071;49.036;9.344;2023-05-09T03:13:24;25.90;;;16.37;;
46363;SDS011;32071;49.036;9.344;2023-05-09T03:15:50;27.57;;;17.30;;
46363;SDS011;32071;49.036;9.344;2023-05-09T03:18:16;20.43;;;15.70;;
46363;SDS011;32071;49.036;9.344;2023-05-09T03:20:42;24.50;;;16.00;;
46363;SDS011;32071;49.036;9.344;2023-05-09T03:23:08;27.23;;;17.07;;
46363;SDS011;32071;49.036;9.344;2023-05-09T03:25:34;20.70;;;14.77;;
46363;SDS011;32071;49.036;9.344;2023-05-09T03:27:59;24.37;;;14.87;;
46363;SDS011;32071;49.036;9.344;2023-05-09T03:30:25;20.27;;;14.70;;
46363;SDS011;32071;49.036;9.344;2023-05-09T03:32:51;26.80;;;14.43;;
46363;SDS011;32071;49.036;9.344;2023-05-09T03:35:16;22.13;;;14.83;;
46363;SDS011;32071;49.036;9.344;2023-05-09T03:37:42;24.97;;;15.87;;
46363;SDS011;32071;49.036;9.344;2023-05-09T03:40:08;22.30;;;15.77;;
46363;SDS011;32071;49.036;9.344;2023-05-09T03:42:34;31.43;;;16.80;;
46363;SDS011;32071;49.036;9.344;2023-05-09T03:44:59;25.57;;;17.00;;
46363;SDS011;32071;49.036;9.344;2023-05-09T03:47:25;28.80;;;17.00;;
46363;SDS011;32071;49.036;9.344;2023-05-09T03:49:50;24.67;;;17.67;;
46363;SDS011;32071;49.036;9.344;2023-05-09T03:52:17;32.83;;;16.40;;
46363;SDS011;32071;49.036;9.344;2023-05-09T03:54:43;22.30;;;16.20;;
46363;SDS011;32071;49.036;9.344;2023-05-09T03:57:08;27.20;;;16.67;;
46363;SDS011;32071;49.036;9.344;2023-05-09T03:59:34;28.97;;;18.53;;
46363;SDS011;32071;49.036;9.344;2023-05-09T04:02:00;25.50;;;18.03;;
46363;SDS011;32071;49.036;9.344;2023-05-09T04:04:25;31.40;;;18.17;;
46363;SDS011;32071;49.036;9.344;2023-05-09T04:06:51;26.10;;;17.10;;
46363;SDS011;32071;49.036;9.344;2023-05-09T04:09:17;24.60;;;16.20;;
46363;SDS011;32071;49.036;9.344;2023-05-09T04:11:43;23.90;;;16.00;;
46363;SDS011;32071;49.036;9.344;2023-05-09T04:14:08;23.23;;;16.00;;
46363;SDS011;32071;49.036;9.344;2023-05-09T04:16:34;22.20;;;16.40;;
46363;SDS011;32071;49.036;9.344;2023-05-09T04:18:59;27.30;;;17.20;;
46363;SDS011;32071;49.036;9.344;2023-05-09T04:21:25;24.77;;;16.10;;
46363;SDS011;32071;49.036;9.344;2023-05-09T04:23:51;30.73;;;16.63;;
46363;SDS011;32071;49.036;9.344;2023-05-09T04:26:16;20.53;;;15.70;;
46363;SDS011;32071;49.036;9.344;2023-05-09T04:28:42;18.60;;;14.80;;
46363;SDS011;32071;49.036;9.344;2023-05-09T04:31:07;27.93;;;15.97;;
46363;SDS011;32071;49.036;9.344;2023-05-09T04:33:33;21.33;;;15.60;;
46363;SDS011;32071;49.036;9.344;2023-05-09T04:35:59;25.53;;;16.70;;
46363;SDS011;32071;49.036;9.344;2023-05-09T04:38:25;26.40;;;16.60;;
46363;SDS011;32071;49.036;9.344;2023-05-09T04:40:51;25.47;;;15.57;;
46363;SDS011;32071;49.036;9.344;2023-05-09T04:43:17;23.13;;;15.20;;
46363;SDS011;32071;49.036;9.344;2023-05-09T04:45:43;25.30;;;16.60;;
46363;SDS011;32071;49.036;9.344;2023-05-09T04:48:09;24.10;;;15.43;;
46363;SDS011;32071;49.036;9.344;2023-05-09T04:50:35;21.50;;;16.13;;
46363;SDS011;32071;49.036;9.344;2023-05-09T04:53:01;26.80;;;16.90;;
46363;SDS011;32071;49.036;9.344;2023-05-09T04:55:26;25.23;;;16.17;;
46363;SDS011;32071;49.036;9.344;2023-05-09T04:57:52;20.73;;;15.07;;
46363;SDS011;32071;49.036;9.344;2023-05-09T05:00:18;22.93;;;15.07;;
46363;SDS011;32071;49.036;9.344;2023-05-09T05:02:43;19.93;;;14.60;;
46363;SDS011;32071;49.036;9.344;2023-05-09T05:05:09;22.50;;;15.97;;
46363;SDS011;32071;49.036;9.344;2023-05-09T05:07:35;22.97;;;16.30;;
46363;SDS011;32071;49.036;9.344;2023-05-09T05:10:01;21.17;;;15.90;;
46363;SDS011;32071;49.036;9.344;2023-05-09T05:12:27;25.83;;;15.37;;
46363;SDS011;32071;49.036;9.344;2023-05-09T05:14:52;23.00;;;15.77;;
46363;SDS011;32071;49.036;9.344;2023-05-09T05:17:18;22.57;;;16.40;;
46363;SDS011;32071;49.036;9.344;2023-05-09T05:19:43;22.53;;;16.10;;
46363;SDS011;32071;49.036;9.344;2023-05-09T05:22:09;22.10;;;15.57;;
46363;SDS011;32071;49.036;9.344;2023-05-09T05:24:34;24.90;;;16.20;;
46363;SDS011;32071;49.036;9.344;2023-05-09T05:27:00;24.70;;;15.57;;
46363;SDS011;32071;49.036;9.344;2023-05-09T05:29:25;20.60;;;15.97;;
46363;SDS011;32071;49.036;9.344;2023-05-09T05:31:51;20.63;;;15.60;;
46363;SDS011;32071;49.036;9.344;2023-05-09T05:34:16;22.90;;;16.03;;
46363;SDS011;32071;49.036;9.344;2023-05-09T05:36:42;23.50;;;17.07;;
46363;SDS011;32071;49.036;9.344;2023-05-09T05:39:08;22.63;;;15.80;;
46363;SDS011;32071;49.036;9.344;2023-05-09T05:41:33;25.30;;;17.37;;
46363;SDS011;32071;49.036;9.344;2023-05-09T05:43:59;24.00;;;17.43;;
46363;SDS011;32071;49.036;9.344;2023-05-09T05:46:24;29.80;;;19.10;;
46363;SDS011;32071;49.036;9.344;2023-05-09T05:48:50;31.20;;;18.47;;
46363;SDS011;32071;49.036;9.344;2023-05-09T05:51:15;25.63;;;17.47;;
46363;SDS011;32071;49.036;9.344;2023-05-09T05:53:41;31.50;;;18.47;;
46363;SDS011;32071;49.036;9.344;2023-05-09T05:56:06;31.10;;;20.30;;
46363;SDS011;32071;49.036;9.344;2023-05-09T05:58:32;32.03;;;21.40;;
46363;SDS011;32071;49.036;9.344;2023-05-09T06:00:57;29.70;;;20.20;;
46363;SDS011;32071;49.036;9.344;2023-05-09T06:03:23;28.93;;;19.00;;
46363;SDS011;32071;49.036;9.344;2023-05-09T06:05:48;28.63;;;20.00;;
46363;SDS011;32071;49.036;9.344;2023-05-09T06:08:14;29.90;;;20.20;;
46363;SDS011;32071;49.036;9.344;2023-05-09T06:10:40;26.10;;;19.80;;
46363;SDS011;32071;49.036;9.344;2023-05-09T06:13:06;23.60;;;18.00;;
46363;SDS011;32071;49.036;9.344;2023-05-09T06:15:31;29.97;;;19.40;;
46363;SDS011;32071;49.036;9.344;2023-05-09T06:17:57;27.33;;;19.43;;
46363;SDS011;32071;49.036;9.344;2023-05-09T06:20:23;27.57;;;18.87;;
46363;SDS011;32071;49.036;9.344;2023-05-09T06:22:49;25.63;;;18.70;;
46363;SDS011;32071;49.036;9.344;2023-05-09T06:25:14;26.43;;;18.47;;
46363;SDS011;32071;49.036;9.344;2023-05-09T06:27:40;27.90;;;20.00;;
46363;SDS011;32071;49.036;9.344;2023-05-09T06:30:06;31.07;;;21.10;;
46363;SDS011;32071;49.036;9.344;2023-05-09T06:32:32;30.33;;;19.33;;
46363;SDS011;32071;49.036;9.344;2023-05-09T06:34:58;29.60;;;19.00;;
46363;SDS011;32071;49.036;9.344;2023-05-09T06:37:23;27.43;;;19.63;;
46363;SDS011;32071;49.036;9.344;2023-05-09T06:39:49;25.40;;;19.10;;
46363;SDS011;32071;49.036;9.344;2023-05-09T06:42:15;28.63;;;19.57;;
46363;SDS011;32071;49.036;9.344;2023-05-09T06:44:40;24.70;;;18.17;;
46363;SDS011;32071;49.036;9.344;2023-05-09T06:47:07;26.43;;;18.70;;
46363;SDS011;32071;49.036;9.344;2023-05-09T06:49:33;31.07;;;20.03;;
46363;SDS011;32071;49.036;9.344;2023-05-09T06:51:59;24.30;;;19.33;;
46363;SDS011;32071;49.036;9.344;2023-05-09T06:54:24;31.87;;;20.43;;
46363;SDS011;32071;49.036;9.344;2023-05-09T06:56:50;30.17;;;19.90;;
46363;SDS011;32071;49.036;9.344;2023-05-09T06:59:15;27.30;;;19.33;;
46363;SDS011;32071;49.036;9.344;2023-05-09T07:01:41;26.80;;;19.60;;
46363;SDS011;32071;49.036;9.344;2023-05-09T07:04:07;28.73;;;19.63;;
46363;SDS011;32071;49.036;9.344;2023-05-09T07:06:32;25.40;;;18.83;;
46363;SDS011;32071;49.036;9.344;2023-05-09T07:08:58;22.80;;;18.20;;
46363;SDS011;32071;49.036;9.344;2023-05-09T07:11:23;28.20;;;18.73;;
46363;SDS011;32071;49.036;9.344;2023-05-09T07:13:49;24.07;;;17.13;;
46363;SDS011;32071;49.036;9.344;2023-05-09T07:16:15;26.23;;;19.20;;
46363;SDS011;32071;49.036;9.344;2023-05-09T07:18:42;24.80;;;18.53;;
46363;SDS011;32071;49.036;9.344;2023-05-09T07:21:08;28.60;;;19.87;;
46363;SDS011;32071;49.036;9.344;2023-05-09T07:23:33;26.47;;;19.67;;
46363;SDS011;32071;49.036;9.344;2023-05-09T07:25:59;25.17;;;19.73;;
46363;SDS011;32071;49.036;9.344;2023-05-09T07:28:25;24.53;;;17.90;;
46363;SDS011;32071;49.036;9.344;2023-05-09T07:30:51;24.80;;;18.40;;
46363;SDS011;32071;49.036;9.344;2023-05-09T07:33:16;29.70;;;20.47;;
46363;SDS011;32071;49.036;9.344;2023-05-09T07:35:42;28.03;;;20.20;;
46363;SDS011;32071;49.036;9.344;2023-05-09T07:38:07;22.90;;;17.80;;
46363;SDS011;32071;49.036;9.344;2023-05-09T07:40:33;25.17;;;19.80;;
46363;SDS011;32071;49.036;9.344;2023-05-09T07:43:01;22.73;;;17.40;;
46363;SDS011;32071;49.036;9.344;2023-05-09T07:45:26;22.70;;;18.00;;
46363;SDS011;32071;49.036;9.344;2023-05-09T07:47:52;23.73;;;18.00;;
46363;SDS011;32071;49.036;9.344;2023-05-09T07:50:17;26.03;;;18.10;;
46363;SDS011;32071;49.036;9.344;2023-05-09T07:52:43;26.83;;;17.90;;
46363;SDS011;32071;49.036;9.344;2023-05-09T07:55:09;22.40;;;18.57;;
46363;SDS011;32071;49.036;9.344;2023-05-09T07:57:36;26.03;;;18.20;;
46363;SDS011;32071;49.036;9.344;2023-05-09T08:00:03;27.60;;;18.63;;
46363;SDS011;32071;49.036;9.344;2023-05-09T08:02:30;22.30;;;18.50;;
46363;SDS011;32071;49.036;9.344;2023-05-09T08:04:56;22.40;;;18.00;;
46363;SDS011;32071;49.036;9.344;2023-05-09T08:07:21;23.10;;;17.73;;
46363;SDS011;32071;49.036;9.344;2023-05-09T08:09:47;23.30;;;17.50;;
46363;SDS011;32071;49.036;9.344;2023-05-09T08:12:12;24.70;;;17.93;;
46363;SDS011;32071;49.036;9.344;2023-05-09T08:14:38;21.03;;;16.73;;
46363;SDS011;32071;49.036;9.344;2023-05-09T08:17:03;18.60;;;14.50;;
46363;SDS011;32071;49.036;9.344;2023-05-09T08:19:29;22.10;;;16.83;;
46363;SDS011;32071;49.036;9.344;2023-05-09T08:21:54;20.43;;;15.53;;
46363;SDS011;32071;49.036;9.344;2023-05-09T08:24:20;20.50;;;15.77;;
46363;SDS011;32071;49.036;9.344;2023-05-09T08:26:46;24.70;;;16.50;;
46363;SDS011;32071;49.036;9.344;2023-05-09T08:29:11;18.30;;;15.23;;
46363;SDS011;32071;49.036;9.344;2023-05-09T08:31:37;17.73;;;14.20;;
46363;SDS011;32071;49.036;9.344;2023-05-09T08:34:02;19.83;;;15.80;;
46363;SDS011;32071;49.036;9.344;2023-05-09T08:36:28;19.40;;;15.40;;
46363;SDS011;32071;49.036;9.344;2023-05-09T08:38:54;19.53;;;16.03;;
46363;SDS011;32071;49.036;9.344;2023-05-09T08:41:21;19.43;;;15.30;;
46363;SDS011;32071;49.036;9.344;2023-05-09T08:43:52;21.63;;;17.10;;
46363;SDS011;32071;49.036;9.344;2023-05-09T08:46:18;20.53;;;16.70;;
46363;SDS011;32071;49.036;9.344;2023-05-09T08:48:51;18.33;;;15.10;;
46363;SDS011;32071;49.036;9.344;2023-05-09T08:51:18;17.37;;;14.70;;
46363;SDS011;32071;49.036;9.344;2023-05-09T08:53:43;19.37;;;16.20;;
46363;SDS011;32071;49.036;9.344;2023-05-09T08:56:09;19.60;;;15.93;;
46363;SDS011;32071;49.036;9.344;2023-05-09T08:58:35;19.77;;;16.10;;
46363;SDS011;32071;49.036;9.344;2023-05-09T09:01:02;16.40;;;13.90;;
46363;SDS011;32071;49.036;9.344;2023-05-09T09:03:31;13.17;;;11.77;;
46363;SDS011;32071;49.036;9.344;2023-05-09T09:05:57;15.30;;;12.77;;
46363;SDS011;32071;49.036;9.344;2023-05-09T09:08:24;13.90;;;11.97;;
46363;SDS011;32071;49.036;9.344;2023-05-09T09:10:51;15.60;;;12.37;;
46363;SDS011;32071;49.036;9.344;2023-05-09T09:13:17;15.00;;;12.40;;
46363;SDS011;32071;49.036;9.344;2023-05-09T09:15:45;14.07;;;11.70;;
46363;SDS011;32071;49.036;9.344;2023-05-09T09:18:15;14.37;;;12.17;;
46363;SDS011;32071;49.036;9.344;2023-05-09T09:20:50;12.57;;;11.27;;
46363;SDS011;32071;49.036;9.344;2023-05-09T09:23:20;15.00;;;12.63;;
46363;SDS011;32071;49.036;9.344;2023-05-09T09:25:52;19.77;;;12.53;;
46363;SDS011;32071;49.036;9.344;2023-05-09T09:28:21;13.60;;;12.20;;
46363;SDS011;32071;49.036;9.344;2023-05-09T09:30:47;15.57;;;11.27;;
46363;SDS011;32071;49.036;9.344;2023-05-09T09:33:19;13.17;;;11.63;;
46363;SDS011;32071;49.036;9.344;2023-05-09T09:35:46;13.93;;;11.80;;
46363;SDS011;32071;49.036;9.344;2023-05-09T09:38:19;11.00;;;9.23;;
46363;SDS011;32071;49.036;9.344;2023-05-09T09:40:51;11.90;;;10.60;;
46363;SDS011;32071;49.036;9.344;2023-05-09T09:43:19;14.60;;;11.10;;
46363;SDS011;32071;49.036;9.344;2023-05-09T09:45:48;11.03;;;9.80;;
46363;SDS011;32071;49.036;9.344;2023-05-09T09:48:14;10.10;;;8.60;;
46363;SDS011;32071;49.036;9.344;2023-05-09T09:50:40;10.00;;;8.37;;
46363;SDS011;32071;49.036;9.344;2023-05-09T09:53:06;9.67;;;8.77;;
46363;SDS011;32071;49.036;9.344;2023-05-09T09:55:33;9.57;;;8.30;;
46363;SDS011;32071;49.036;9.344;2023-05-09T09:57:58;10.03;;;9.00;;
46363;SDS011;32071;49.036;9.344;2023-05-09T10:00:25;13.77;;;9.30;;
46363;SDS011;32071;49.036;9.344;2023-05-09T10:02:53;12.73;;;11.30;;
46363;SDS011;32071;49.036;9.344;2023-05-09T10:05:21;10.97;;;9.23;;
46363;SDS011;32071;49.036;9.344;2023-05-09T10:10:20;11.33;;;9.60;;
46363;SDS011;32071;49.036;9.344;2023-05-09T10:12:46;13.55;;;9.10;;
46363;SDS011;32071;49.036;9.344;2023-05-09T10:15:15;14.00;;;10.83;;
46363;SDS011;32071;49.036;9.344;2023-05-09T10:17:42;11.37;;;9.90;;
46363;SDS011;32071;49.036;9.344;2023-05-09T10:20:08;12.37;;;10.50;;
46363;SDS011;32071;49.036;9.344;2023-05-09T10:22:36;13.77;;;11.20;;
46363;SDS011;32071;49.036;9.344;2023-05-09T10:25:04;10.93;;;9.83;;
46363;SDS011;32071;49.036;9.344;2023-05-09T10:27:35;11.10;;;9.43;;
46363;SDS011;32071;49.036;9.344;2023-05-09T10:30:09;10.47;;;9.37;;
46363;SDS011;32071;49.036;9.344;2023-05-09T10:32:51;10.30;;;8.80;;
46363;SDS011;32071;49.036;9.344;2023-05-09T10:35:36;10.83;;;9.73;;
46363;SDS011;32071;49.036;9.344;2023-05-09T10:38:08;9.93;;;8.93;;
46363;SDS011;32071;49.036;9.344;2023-05-09T10:40:36;10.77;;;9.67;;
46363;SDS011;32071;49.036;9.344;2023-05-09T10:43:02;12.43;;;10.60;;
46363;SDS011;32071;49.036;9.344;2023-05-09T10:45:29;10.63;;;9.53;;
46363;SDS011;32071;49.036;9.344;2023-05-09T10:47:55;10.80;;;9.70;;
46363;SDS011;32071;49.036;9.344;2023-05-09T10:50:23;12.17;;;7.97;;
46363;SDS011;32071;49.036;9.344;2023-05-09T10:55:51;10.27;;;8.60;;
46363;SDS011;32071;49.036;9.344;2023-05-09T10:58:29;10.23;;;8.83;;
46363;SDS011;32071;49.036;9.344;2023-05-09T11:01:02;9.47;;;8.57;;
46363;SDS011;32071;49.036;9.344;2023-05-09T11:06:38;9.40;;;8.50;;
46363;SDS011;32071;49.036;9.344;2023-05-09T11:09:23;10.07;;;8.13;;
46363;SDS011;32071;49.036;9.344;2023-05-09T11:17:03;8.43;;;7.53;;
46363;SDS011;32071;49.036;9.344;2023-05-09T11:19:37;6.53;;;5.93;;
46363;SDS011;32071;49.036;9.344;2023-05-09T11:22:30;6.87;;;6.17;;
46363;SDS011;32071;49.036;9.344;2023-05-09T11:30:07;7.03;;;6.33;;
46363;SDS011;32071;49.036;9.344;2023-05-09T11:33:07;7.23;;;6.27;;
46363;SDS011;32071;49.036;9.344;2023-05-09T11:35:26;6.70;;;5.77;;
46363;SDS011;32071;49.036;9.344;2023-05-09T11:37:53;6.93;;;6.33;;
46363;SDS011;32071;49.036;9.344;2023-05-09T11:40:24;6.10;;;5.60;;
46363;SDS011;32071;49.036;9.344;2023-05-09T11:42:52;5.80;;;5.30;;
46363;SDS011;32071;49.036;9.344;2023-05-09T11:45:18;5.93;;;5.43;;
46363;SDS011;32071;49.036;9.344;2023-05-09T11:47:45;5.70;;;5.20;;
46363;SDS011;32071;49.036;9.344;2023-05-09T11:50:12;5.70;;;5.20;;
46363;SDS011;32071;49.036;9.344;2023-05-09T11:52:38;5.37;;;4.87;;
46363;SDS011;32071;49.036;9.344;2023-05-09T11:55:07;5.40;;;5.00;;
46363;SDS011;32071;49.036;9.344;2023-05-09T11:57:35;5.43;;;4.97;;
46363;SDS011;32071;49.036;9.344;2023-05-09T12:00:04;5.00;;;4.60;;
46363;SDS011;32071;49.036;9.344;2023-05-09T12:02:30;5.90;;;5.10;;
46363;SDS011;32071;49.036;9.344;2023-05-09T12:05:14;5.30;;;4.80;;
46363;SDS011;32071;49.036;9.344;2023-05-09T12:07:41;5.20;;;4.70;;
46363;SDS011;32071;49.036;9.344;2023-05-09T12:10:11;5.87;;;5.10;;
46363;SDS011;32071;49.036;9.344;2023-05-09T12:12:42;6.10;;;5.60;;
46363;SDS011;32071;49.036;9.344;2023-05-09T12:15:19;4.90;;;4.50;;
46363;SDS011;32071;49.036;9.344;2023-05-09T12:17:45;5.17;;;4.60;;
46363;SDS011;32071;49.036;9.344;2023-05-09T12:20:11;5.27;;;4.77;;
46363;SDS011;32071;49.036;9.344;2023-05-09T12:22:37;6.03;;;5.50;;
46363;SDS011;32071;49.036;9.344;2023-05-09T12:25:06;5.90;;;5.40;;
46363;SDS011;32071;49.036;9.344;2023-05-09T12:27:34;5.90;;;5.40;;
46363;SDS011;32071;49.036;9.344;2023-05-09T12:30:01;5.60;;;5.03;;
46363;SDS011;32071;49.036;9.344;2023-05-09T12:32:34;5.97;;;5.47;;
46363;SDS011;32071;49.036;9.344;2023-05-09T12:35:01;6.50;;;5.90;;
46363;SDS011;32071;49.036;9.344;2023-05-09T12:37:28;7.10;;;6.37;;
46363;SDS011;32071;49.036;9.344;2023-05-09T12:42:29;9.63;;;7.23;;
46363;SDS011;32071;49.036;9.344;2023-05-09T12:44:58;7.27;;;6.67;;
46363;SDS011;32071;49.036;9.344;2023-05-09T12:47:26;6.70;;;6.20;;
46363;SDS011;32071;49.036;9.344;2023-05-09T12:49:56;6.00;;;5.50;;
46363;SDS011;32071;49.036;9.344;2023-05-09T12:52:22;6.97;;;6.27;;
46363;SDS011;32071;49.036;9.344;2023-05-09T12:54:48;7.33;;;6.47;;
46363;SDS011;32071;49.036;9.344;2023-05-09T12:57:20;7.50;;;6.80;;
46363;SDS011;32071;49.036;9.344;2023-05-09T12:59:46;7.37;;;6.77;;
46363;SDS011;32071;49.036;9.344;2023-05-09T13:02:12;7.63;;;7.03;;
46363;SDS011;32071;49.036;9.344;2023-05-09T13:04:38;7.00;;;6.40;;
46363;SDS011;32071;49.036;9.344;2023-05-09T13:07:07;8.47;;;7.67;;
46363;SDS011;32071;49.036;9.344;2023-05-09T13:09:39;7.43;;;6.73;;
46363;SDS011;32071;49.036;9.344;2023-05-09T13:12:20;8.53;;;7.47;;
46363;SDS011;32071;49.036;9.344;2023-05-09T13:14:46;7.60;;;6.90;;
46363;SDS011;32071;49.036;9.344;2023-05-09T13:17:11;7.17;;;6.57;;
46363;SDS011;32071;49.036;9.344;2023-05-09T13:19:37;7.07;;;6.37;;
46363;SDS011;32071;49.036;9.344;2023-05-09T13:22:03;7.30;;;6.70;;
46363;SDS011;32071;49.036;9.344;2023-05-09T13:24:29;7.87;;;7.10;;
46363;SDS011;32071;49.036;9.344;2023-05-09T13:26:54;7.20;;;6.60;;
46363;SDS011;32071;49.036;9.344;2023-05-09T13:29:20;6.80;;;6.20;;
46363;SDS011;32071;49.036;9.344;2023-05-09T13:31:45;7.50;;;6.80;;
46363;SDS011;32071;49.036;9.344;2023-05-09T13:34:11;7.47;;;6.77;;
46363;SDS011;32071;49.036;9.344;2023-05-09T13:36:37;7.90;;;7.20;;
46363;SDS011;32071;49.036;9.344;2023-05-09T13:39:03;7.03;;;6.40;;
46363;SDS011;32071;49.036;9.344;2023-05-09T13:41:28;6.97;;;6.27;;
46363;SDS011;32071;49.036;9.344;2023-05-09T13:43:56;6.97;;;6.20;;
46363;SDS011;32071;49.036;9.344;2023-05-09T13:46:21;7.57;;;6.73;;
46363;SDS011;32071;49.036;9.344;2023-05-09T13:48:47;6.53;;;6.03;;
46363;SDS011;32071;49.036;9.344;2023-05-09T13:51:12;6.83;;;6.30;;
46363;SDS011;32071;49.036;9.344;2023-05-09T13:53:38;7.10;;;6.40;;
46363;SDS011;32071;49.036;9.344;2023-05-09T13:56:04;6.37;;;5.77;;
46363;SDS011;32071;49.036;9.344;2023-05-09T13:58:31;6.07;;;5.53;;
46363;SDS011;32071;49.036;9.344;2023-05-09T14:00:56;5.00;;;4.63;;
46363;SDS011;32071;49.036;9.344;2023-05-09T14:03:22;6.37;;;5.20;;
46363;SDS011;32071;49.036;9.344;2023-05-09T14:05:48;5.63;;;5.23;;
46363;SDS011;32071;49.036;9.344;2023-05-09T14:08:13;5.73;;;5.20;;
46363;SDS011;32071;49.036;9.344;2023-05-09T14:10:39;6.07;;;5.43;;
46363;SDS011;32071;49.036;9.344;2023-05-09T14:13:04;5.07;;;4.67;;
46363;SDS011;32071;49.036;9.344;2023-05-09T14:15:32;5.40;;;5.00;;
46363;SDS011;32071;49.036;9.344;2023-05-09T14:17:58;5.40;;;5.00;;
46363;SDS011;32071;49.036;9.344;2023-05-09T14:20:23;5.50;;;5.10;;
46363;SDS011;32071;49.036;9.344;2023-05-09T14:22:49;6.70;;;4.63;;
46363;SDS011;32071;49.036;9.344;2023-05-09T14:25:14;5.40;;;5.00;;
46363;SDS011;32071;49.036;9.344;2023-05-09T14:27:40;5.13;;;4.73;;
46363;SDS011;32071;49.036;9.344;2023-05-09T14:30:06;5.40;;;4.90;;
46363;SDS011;32071;49.036;9.344;2023-05-09T14:32:32;5.77;;;4.93;;
46363;SDS011;32071;49.036;9.344;2023-05-09T14:34:58;5.20;;;4.80;;
46363;SDS011;32071;49.036;9.344;2023-05-09T14:37:23;5.70;;;5.20;;
46363;SDS011;32071;49.036;9.344;2023-05-09T14:39:49;5.60;;;5.10;;
46363;SDS011;32071;49.036;9.344;2023-05-09T14:42:14;5.30;;;4.90;;
46363;SDS011;32071;49.036;9.344;2023-05-09T14:44:40;5.87;;;5.37;;
46363;SDS011;32071;49.036;9.344;2023-05-09T14:47:07;5.60;;;5.10;;
46363;SDS011;32071;49.036;9.344;2023-05-09T14:49:33;4.77;;;4.37;;
46363;SDS011;32071;49.036;9.344;2023-05-09T14:52:00;4.93;;;4.53;;
46363;SDS011;32071;49.036;9.344;2023-05-09T14:54:25;4.80;;;4.40;;